Charles Darwin — GDLS — position and weather

sailwx.info

Track history (hours):
 
Tides and Currents Weather Stations Pressure Air Temp Water Temp Dewpoint Dewpoint Depression Visibility Wind Speed Wind Dir Waves Ship Positions

Oceanographic research ship Charles Darwin (UK)

Detailed information on ship capabilities available from University of Delaware's Ocean Information Center.

Last reported at 2020-Jan-13 07:41 UTC. Time now 2020-Jan-19 15:56 UTC.
Position N 39°30' W 073°59'.

Length 70 m; draft 5.6 m.

Type: Cargo ship. MMSI: 235011460.

Date/timePositionNaut miles runAvg speedWind from/ knotsBaromVisibWave heightAir tempDewpointWater temp
2020-Jan-13 07:41N 39°30' W 073°59'11 9.3
2020-Jan-13 06:28N 39°41' W 073°53'46 8.5
2020-Jan-13 01:03N 40°27' W 073°50'5 8.1
2020-Jan-13 00:28N 40°29' W 073°56'15 3.6
2020-Jan-12 20:19N 40°38' W 074°12'0 0.0
2020-Jan-12 18:25N 40°38' W 074°12'0 0.0
2020-Jan-12 17:25N 40°38' W 074°12'0 0.0
2020-Jan-12 16:25N 40°38' W 074°12'0 0.0
2020-Jan-12 15:52N 40°38' W 074°12'0 0.0
2020-Jan-12 15:28N 40°38' W 074°12'0 0.0
2020-Jan-12 12:28N 40°38' W 074°12'0 0.0
2020-Jan-12 11:28N 40°38' W 074°12'0 0.0
2020-Jan-12 08:58N 40°38' W 074°12'0 0.0
2020-Jan-12 08:22N 40°38' W 074°12'0 0.0
2020-Jan-12 06:58N 40°38' W 074°12'0 0.0
2020-Jan-12 02:58N 40°38' W 074°12'0 0.0
2020-Jan-12 00:58N 40°38' W 074°12'0 0.0
2020-Jan-11 23:58N 40°38' W 074°12'0 0.0
2020-Jan-11 22:58N 40°38' W 074°12'0 0.0
2020-Jan-11 22:28N 40°38' W 074°12'0 0.0
2020-Jan-11 21:28N 40°38' W 074°12'0 0.0
2020-Jan-11 20:58N 40°38' W 074°12'0 0.0
2020-Jan-11 16:58N 40°38' W 074°12'0 0.0
2020-Jan-11 15:58N 40°38' W 074°12'0 0.0
2020-Jan-11 10:58N 40°38' W 074°12'0 0.0
2020-Jan-11 06:31N 40°38' W 074°12'0 0.0
2020-Jan-11 03:28N 40°38' W 074°12'0 0.0
2020-Jan-11 02:58N 40°38' W 074°12'0 0.0
2020-Jan-11 02:28N 40°38' W 074°12'0 0.0
2020-Jan-11 01:28N 40°38' W 074°12'0 0.0
2020-Jan-11 00:01N 40°38' W 074°12'0 0.0
2020-Jan-10 23:30N 40°38' W 074°12'0 0.0
2020-Jan-10 17:31N 40°38' W 074°12'0 0.0
2020-Jan-10 17:00N 40°38' W 074°12'0 0.0
2020-Jan-10 15:30N 40°38' W 074°12'0 0.0
2020-Jan-10 12:30N 40°38' W 074°12'8 4.1
2020-Jan-10 10:30N 40°35' W 074°02'67 7.3
2020-Jan-10 01:16N 39°28' W 073°58'2 9.2
2020-Jan-10 00:59N 39°26' W 073°59'  
Track history (hours):
 
Tides and Currents Weather Stations Pressure Air Temp Water Temp Dewpoint Dewpoint Depression Visibility Wind Speed Wind Dir Waves Ship Positions

Oceanographic research ship Charles Darwin (UK)

Detailed information on ship capabilities available from University of Delaware's Ocean Information Center.

Last reported at 2020-Jan-13 07:41 UTC. Time now 2020-Jan-19 15:56 UTC.
Position N 39°30' W 073°59'.

Length 70 m; draft 5.6 m.

Type: Cargo ship. MMSI: 235011460.

Date/timePositionNaut miles runAvg speedWind from/ knotsBaromVisibWave heightAir tempDewpointWater temp
2020-Jan-13 07:41N 39°30' W 073°59'11 9.3
2020-Jan-13 06:28N 39°41' W 073°53'46 8.5
2020-Jan-13 01:03N 40°27' W 073°50'5 8.1
2020-Jan-13 00:28N 40°29' W 073°56'15 3.6
2020-Jan-12 20:19N 40°38' W 074°12'0 0.0
2020-Jan-12 18:25N 40°38' W 074°12'0 0.0
2020-Jan-12 17:25N 40°38' W 074°12'0 0.0
2020-Jan-12 16:25N 40°38' W 074°12'0 0.0
2020-Jan-12 15:52N 40°38' W 074°12'0 0.0
2020-Jan-12 15:28N 40°38' W 074°12'0 0.0
2020-Jan-12 12:28N 40°38' W 074°12'0 0.0
2020-Jan-12 11:28N 40°38' W 074°12'0 0.0
2020-Jan-12 08:58N 40°38' W 074°12'0 0.0
2020-Jan-12 08:22N 40°38' W 074°12'0 0.0
2020-Jan-12 06:58N 40°38' W 074°12'0 0.0
2020-Jan-12 02:58N 40°38' W 074°12'0 0.0
2020-Jan-12 00:58N 40°38' W 074°12'0 0.0
2020-Jan-11 23:58N 40°38' W 074°12'0 0.0
2020-Jan-11 22:58N 40°38' W 074°12'0 0.0
2020-Jan-11 22:28N 40°38' W 074°12'0 0.0
2020-Jan-11 21:28N 40°38' W 074°12'0 0.0
2020-Jan-11 20:58N 40°38' W 074°12'0 0.0
2020-Jan-11 16:58N 40°38' W 074°12'0 0.0
2020-Jan-11 15:58N 40°38' W 074°12'0 0.0
2020-Jan-11 10:58N 40°38' W 074°12'0 0.0
2020-Jan-11 06:31N 40°38' W 074°12'0 0.0
2020-Jan-11 03:28N 40°38' W 074°12'0 0.0
2020-Jan-11 02:58N 40°38' W 074°12'0 0.0
2020-Jan-11 02:28N 40°38' W 074°12'0 0.0
2020-Jan-11 01:28N 40°38' W 074°12'0 0.0
2020-Jan-11 00:01N 40°38' W 074°12'0 0.0
2020-Jan-10 23:30N 40°38' W 074°12'0 0.0
2020-Jan-10 17:31N 40°38' W 074°12'0 0.0
2020-Jan-10 17:00N 40°38' W 074°12'0 0.0
2020-Jan-10 15:30N 40°38' W 074°12'0 0.0
2020-Jan-10 12:30N 40°38' W 074°12'8 4.1
2020-Jan-10 10:30N 40°35' W 074°02'67 7.3
2020-Jan-10 01:16N 39°28' W 073°58'2 9.2
2020-Jan-10 00:59N 39°26' W 073°59'  

Dump ship's entire track history